createdAt,value
2017-08-09T00:02:22.326Z,54.60
2017-08-09T00:04:50.613Z,54.30
2017-08-09T00:07:18.135Z,54.20
2017-08-09T00:09:45.682Z,54.30
2017-08-09T00:12:13.198Z,54.50
2017-08-09T00:14:40.725Z,54.60
2017-08-09T00:17:09.006Z,56.50
2017-08-09T00:19:37.290Z,57.00
2017-08-09T00:22:05.090Z,57.00
2017-08-09T00:24:32.613Z,57.00
2017-08-09T00:27:00.133Z,57.50
2017-08-09T00:29:27.658Z,58.40
2017-08-09T00:31:55.203Z,59.30
2017-08-09T00:34:22.745Z,59.40
2017-08-09T00:36:50.274Z,58.90
2017-08-09T00:39:17.797Z,58.90
2017-08-09T00:41:45.326Z,59.60
2017-08-09T00:44:12.854Z,59.70
2017-08-09T00:46:40.410Z,59.10
2017-08-09T00:49:08.028Z,58.80
2017-08-09T00:51:35.547Z,58.80
2017-08-09T00:54:03.837Z,59.10
2017-08-09T00:56:31.370Z,59.00
2017-08-09T00:58:59.678Z,59.00
2017-08-09T01:01:27.207Z,59.00
2017-08-09T01:03:55.494Z,60.80
2017-08-09T01:06:23.783Z,60.60
2017-08-09T01:08:51.318Z,60.50
2017-08-09T01:11:19.630Z,59.90
2017-08-09T01:13:47.150Z,59.80
2017-08-09T01:16:15.437Z,61.20
2017-08-09T01:18:43.731Z,60.20
2017-08-09T01:21:11.254Z,60.10
2017-08-09T01:23:38.826Z,60.50
2017-08-09T01:26:07.106Z,60.30
2017-08-09T01:28:34.634Z,59.60
2017-08-09T01:31:02.158Z,59.50
2017-08-09T01:33:29.679Z,59.60
2017-08-09T01:35:58.078Z,59.40
2017-08-09T01:38:25.597Z,59.30
2017-08-09T01:40:53.126Z,59.30
2017-08-09T01:43:20.647Z,59.30
2017-08-09T01:45:48.181Z,59.10
2017-08-09T01:48:16.505Z,58.90
2017-08-09T01:50:44.018Z,58.80
2017-08-09T01:53:12.358Z,59.00
2017-08-09T01:55:39.873Z,58.90
2017-08-09T01:58:07.390Z,58.90
2017-08-09T02:00:34.942Z,59.00
2017-08-09T02:03:02.465Z,58.90
2017-08-09T02:05:29.977Z,58.70
2017-08-09T02:07:57.494Z,59.30
2017-08-09T02:10:25.010Z,59.20
2017-08-09T02:12:53.329Z,58.60
2017-08-09T02:15:20.850Z,58.60
2017-08-09T02:17:48.370Z,58.60
2017-08-09T02:20:15.894Z,59.30
2017-08-09T02:22:43.417Z,59.00
2017-08-09T02:25:11.734Z,58.50
2017-08-09T02:27:39.245Z,58.50
2017-08-09T02:30:07.538Z,58.60
2017-08-09T02:32:35.058Z,58.60
2017-08-09T02:35:02.581Z,58.40
2017-08-09T02:37:30.122Z,58.80
2017-08-09T02:39:57.654Z,58.60
2017-08-09T02:42:25.937Z,59.50
2017-08-09T02:44:54.230Z,59.30
2017-08-09T02:47:21.754Z,59.40
2017-08-09T02:49:49.310Z,59.40
2017-08-09T02:52:16.821Z,59.30
2017-08-09T02:54:44.338Z,59.40
2017-08-09T02:57:12.635Z,59.10
2017-08-09T02:59:40.155Z,59.00
2017-08-09T03:02:07.694Z,58.80
2017-08-09T03:04:35.217Z,58.90
2017-08-09T03:07:02.733Z,58.70
2017-08-09T03:09:30.250Z,58.90
2017-08-09T03:11:57.861Z,58.70
2017-08-09T03:14:26.181Z,58.70
2017-08-09T03:16:53.697Z,58.70
2017-08-09T03:19:21.982Z,58.30
2017-08-09T03:21:50.262Z,57.80
2017-08-09T03:24:18.537Z,57.80
2017-08-09T03:26:46.841Z,58.00
2017-08-09T03:29:14.361Z,58.00
2017-08-09T03:31:42.657Z,58.00
2017-08-09T03:34:10.169Z,58.00
2017-08-09T03:36:37.692Z,58.20
2017-08-09T03:39:05.242Z,58.10
2017-08-09T03:41:32.754Z,58.40
2017-08-09T03:44:00.278Z,58.20
2017-08-09T03:46:27.802Z,58.20
2017-08-09T03:48:55.317Z,58.00
2017-08-09T03:51:22.864Z,58.30
2017-08-09T03:53:50.382Z,57.90
2017-08-09T03:56:17.897Z,57.90
2017-08-09T03:58:45.415Z,57.70
2017-08-09T04:01:12.933Z,57.80
2017-08-09T04:03:41.242Z,59.20
2017-08-09T04:06:08.766Z,59.10
2017-08-09T04:08:37.049Z,58.60
2017-08-09T04:11:05.330Z,58.80
2017-08-09T04:13:32.843Z,58.80
2017-08-09T04:16:00.386Z,59.50
2017-08-09T04:18:27.910Z,59.50
2017-08-09T04:20:55.433Z,59.00
2017-08-09T04:23:22.959Z,59.00
2017-08-09T04:25:50.481Z,59.00
2017-08-09T04:28:18.029Z,58.90
2017-08-09T04:30:46.319Z,58.40
2017-08-09T04:33:13.833Z,58.40
2017-08-09T04:35:41.350Z,58.40
2017-08-09T04:38:08.869Z,58.60
2017-08-09T04:40:37.191Z,58.30
2017-08-09T04:43:04.711Z,58.30
2017-08-09T04:45:32.998Z,58.40
2017-08-09T04:48:00.584Z,58.40
2017-08-09T04:50:28.107Z,58.20
2017-08-09T04:52:56.623Z,57.80
2017-08-09T04:55:24.150Z,57.80
2017-08-09T04:57:53.890Z,58.00
2017-08-09T05:00:21.554Z,58.00
2017-08-09T05:02:49.078Z,57.80
2017-08-09T05:05:17.389Z,58.20
2017-08-09T05:07:44.912Z,58.20
2017-08-09T05:10:13.201Z,58.20
2017-08-09T05:12:40.733Z,58.10
2017-08-09T05:15:09.022Z,58.40
2017-08-09T05:17:37.339Z,58.00
2017-08-09T05:20:04.866Z,57.90
2017-08-09T05:22:32.394Z,58.00
2017-08-09T05:24:59.919Z,57.30
2017-08-09T05:27:27.442Z,57.70
2017-08-09T05:29:54.989Z,57.50
2017-08-09T05:32:39.581Z,57.20
2017-08-09T05:35:07.993Z,57.10
2017-08-09T05:37:35.558Z,57.80
2017-08-09T05:40:03.304Z,57.50
2017-08-09T05:42:30.821Z,57.30
2017-08-09T05:44:58.812Z,57.60
2017-08-09T05:47:27.394Z,58.80
2017-08-09T05:49:55.449Z,58.80
2017-08-09T05:52:22.977Z,58.90
2017-08-09T05:54:51.508Z,59.80
2017-08-09T05:57:19.318Z,59.70
2017-08-09T05:59:47.630Z,60.30
2017-08-09T06:02:15.546Z,61.00
2017-08-09T06:04:43.389Z,61.10
2017-08-09T06:07:11.806Z,60.50
2017-08-09T06:09:40.099Z,59.70
2017-08-09T06:12:08.410Z,60.40
2017-08-09T06:14:36.171Z,60.40
2017-08-09T06:17:03.705Z,59.90
2017-08-09T06:19:31.223Z,59.30
2017-08-09T06:21:58.742Z,58.60
2017-08-09T06:24:26.923Z,58.10
2017-08-09T06:26:54.697Z,57.80
2017-08-09T06:29:22.226Z,57.70
2017-08-09T06:31:49.743Z,59.30
2017-08-09T06:34:18.441Z,59.60
2017-08-09T06:36:47.019Z,59.90
2017-08-09T06:39:14.962Z,59.40
2017-08-09T06:41:42.914Z,60.40
2017-08-09T06:44:10.714Z,60.70
2017-08-09T06:46:38.422Z,60.50
2017-08-09T06:49:06.202Z,60.20
2017-08-09T06:51:33.719Z,59.40
2017-08-09T06:54:02.337Z,57.70
2017-08-09T06:56:29.857Z,57.60
2017-08-09T06:58:58.138Z,56.80
2017-08-09T07:01:25.694Z,56.70
2017-08-09T07:03:53.975Z,56.40
2017-08-09T07:06:22.260Z,56.30
2017-08-09T07:08:50.045Z,56.20
2017-08-09T07:11:17.745Z,56.20
2017-08-09T07:13:46.597Z,56.20
2017-08-09T07:16:14.463Z,56.10
2017-08-09T07:18:42.406Z,57.00
2017-08-09T07:21:10.183Z,57.70
2017-08-09T07:23:37.976Z,57.30
2017-08-09T07:26:05.646Z,58.00
2017-08-09T07:28:33.165Z,57.50
2017-08-09T07:31:00.722Z,57.10
2017-08-09T07:33:28.241Z,57.50
2017-08-09T07:35:55.762Z,57.50
2017-08-09T07:38:23.312Z,57.60
2017-08-09T07:40:51.087Z,56.90
2017-08-09T07:43:18.657Z,56.70
2017-08-09T07:45:46.349Z,56.10
2017-08-09T07:48:14.642Z,54.30
2017-08-09T07:50:42.966Z,53.20
2017-08-09T07:53:10.603Z,53.10
2017-08-09T07:55:38.118Z,53.40
2017-08-09T07:58:05.636Z,52.30
2017-08-09T08:00:33.293Z,51.90
2017-08-09T08:03:00.847Z,52.10
2017-08-09T08:05:28.370Z,51.10
2017-08-09T08:07:56.650Z,51.80
2017-08-09T08:10:25.028Z,50.50
2017-08-09T08:12:52.545Z,50.40
2017-08-09T08:15:20.092Z,50.30
2017-08-09T08:17:47.610Z,50.20
2017-08-09T08:20:15.122Z,49.20
2017-08-09T08:22:42.637Z,48.10
2017-08-09T08:25:10.153Z,48.20
2017-08-09T08:27:37.703Z,47.90
2017-08-09T08:30:05.221Z,47.80
2017-08-09T08:32:32.747Z,46.30
2017-08-09T08:35:01.041Z,48.10
2017-08-09T08:37:28.553Z,48.10
2017-08-09T08:39:56.100Z,47.60
2017-08-09T08:42:23.618Z,47.80
2017-08-09T08:44:51.142Z,46.80
2017-08-09T08:47:18.662Z,47.00
2017-08-09T08:49:46.182Z,47.30
2017-08-09T08:52:13.734Z,47.60
2017-08-09T08:54:42.022Z,47.80
2017-08-09T08:57:09.538Z,47.80
2017-08-09T08:59:37.054Z,48.00
2017-08-09T09:02:04.574Z,48.10
2017-08-09T09:04:32.889Z,48.50
2017-08-09T09:07:00.405Z,47.70
2017-08-09T09:09:28.705Z,46.70
2017-08-09T09:11:56.229Z,46.70
2017-08-09T09:14:23.746Z,46.90
2017-08-09T09:16:51.291Z,46.40
2017-08-09T09:19:18.822Z,45.50
2017-08-09T09:21:47.110Z,44.10
2017-08-09T09:24:14.634Z,44.10
2017-08-09T09:26:42.153Z,44.80
2017-08-09T09:29:09.725Z,44.40
2017-08-09T09:31:37.249Z,44.30
2017-08-09T09:34:04.766Z,44.80
2017-08-09T09:36:32.277Z,44.50
2017-08-09T09:38:59.801Z,44.70
2017-08-09T09:41:28.121Z,46.80
2017-08-09T09:43:55.643Z,46.10
2017-08-09T09:46:23.922Z,46.50
2017-08-09T09:48:52.210Z,47.40
2017-08-09T09:51:19.750Z,47.30
2017-08-09T09:53:48.057Z,48.50
2017-08-09T09:56:15.602Z,48.40
2017-08-09T09:58:43.121Z,47.50
2017-08-09T10:01:10.634Z,47.50
2017-08-09T10:03:38.153Z,47.00
2017-08-09T10:06:06.580Z,46.30
2017-08-09T10:08:34.102Z,46.30
2017-08-09T10:11:02.385Z,46.30
2017-08-09T10:13:29.901Z,46.30
2017-08-09T10:15:57.421Z,46.10
2017-08-09T10:18:24.974Z,45.30
2017-08-09T10:20:52.493Z,45.20
2017-08-09T10:23:20.009Z,46.00
2017-08-09T10:25:47.528Z,45.70
2017-08-09T10:28:15.811Z,45.20
2017-08-09T10:30:43.381Z,45.20
2017-08-09T10:33:10.901Z,44.30
2017-08-09T10:35:39.298Z,42.70
2017-08-09T10:38:07.678Z,42.40
2017-08-09T10:40:35.963Z,41.00
2017-08-09T10:43:03.510Z,40.90
2017-08-09T10:45:40.941Z,42.90
2017-08-09T10:48:09.177Z,42.80
2017-08-09T10:50:37.462Z,39.50
2017-08-09T10:53:04.978Z,39.50
2017-08-09T10:55:32.493Z,39.60
2017-08-09T10:58:00.016Z,40.00
2017-08-09T11:00:28.445Z,38.50
2017-08-09T11:02:56.324Z,38.40
2017-08-09T11:05:24.140Z,38.50
2017-08-09T11:07:52.790Z,37.20
2017-08-09T11:10:20.387Z,37.20
2017-08-09T11:12:48.862Z,37.40
2017-08-09T11:15:17.269Z,37.20
2017-08-09T11:17:45.053Z,37.20
2017-08-09T11:20:12.746Z,36.50
2017-08-09T11:22:40.774Z,36.70
2017-08-09T11:25:08.544Z,36.90
2017-08-09T11:27:36.062Z,36.10
2017-08-09T11:30:04.353Z,36.70
2017-08-09T11:32:31.899Z,36.60
2017-08-09T11:34:59.418Z,35.90
2017-08-09T11:37:26.965Z,36.20
2017-08-09T11:39:54.486Z,37.80
2017-08-09T11:42:22.010Z,35.80
2017-08-09T11:44:49.524Z,36.10
2017-08-09T11:47:17.042Z,34.90
2017-08-09T11:49:45.562Z,35.20
2017-08-09T11:52:13.073Z,35.20
2017-08-09T11:54:41.358Z,35.60
2017-08-09T11:57:09.642Z,36.20
2017-08-09T11:59:37.169Z,36.10
2017-08-09T12:02:04.705Z,36.30
2017-08-09T12:04:32.224Z,36.20
2017-08-09T12:06:59.745Z,36.00
2017-08-09T12:09:27.262Z,36.50
2017-08-09T12:11:54.781Z,36.80
2017-08-09T12:14:23.093Z,36.90
2017-08-09T12:16:50.760Z,36.40
2017-08-09T12:19:19.210Z,36.20
2017-08-09T12:21:46.726Z,36.10
2017-08-09T12:24:14.318Z,36.00
2017-08-09T12:26:42.643Z,37.00
2017-08-09T12:29:10.162Z,37.00
2017-08-09T12:31:38.753Z,36.50
2017-08-09T12:34:06.614Z,36.40
2017-08-09T12:36:34.492Z,36.50
2017-08-09T12:39:02.246Z,36.90
2017-08-09T12:41:29.966Z,36.20
2017-08-09T12:43:57.489Z,35.60
2017-08-09T12:46:25.013Z,35.30
2017-08-09T12:48:53.297Z,36.10
2017-08-09T12:51:21.610Z,35.10
2017-08-09T12:53:49.129Z,35.10
2017-08-09T12:56:17.410Z,33.70
2017-08-09T12:58:44.934Z,33.70
2017-08-09T13:01:12.453Z,32.50
2017-08-09T13:03:39.998Z,31.90
2017-08-09T13:06:07.534Z,33.50
2017-08-09T13:08:35.830Z,32.10
2017-08-09T13:23:15.332Z,31.70
2017-08-09T13:25:42.857Z,31.00
2017-08-09T13:28:10.394Z,29.10
2017-08-09T13:30:37.918Z,28.60
2017-08-09T13:33:05.449Z,28.40
2017-08-09T13:35:33.002Z,27.90
2017-08-09T13:38:00.526Z,27.20
2017-08-09T13:40:28.290Z,27.50
2017-08-09T13:42:55.899Z,27.40
2017-08-09T13:45:23.721Z,26.60
2017-08-09T13:47:51.570Z,26.30
2017-08-09T13:50:19.091Z,25.90
2017-08-09T13:52:46.646Z,25.50
2017-08-09T13:55:14.321Z,24.80
2017-08-09T13:57:41.889Z,24.30
2017-08-09T14:00:09.538Z,24.20
2017-08-09T14:02:37.059Z,24.20
2017-08-09T14:05:05.345Z,23.00
2017-08-09T14:07:32.881Z,23.00
2017-08-09T14:10:01.169Z,23.40
2017-08-09T14:12:28.734Z,22.70
2017-08-09T14:14:57.013Z,22.40
2017-08-09T14:17:25.301Z,22.20
2017-08-09T14:19:52.822Z,22.20
2017-08-09T14:22:21.126Z,23.30
2017-08-09T14:24:48.669Z,23.30
2017-08-09T14:27:16.965Z,24.00
2017-08-09T14:29:44.493Z,23.90
2017-08-09T14:32:12.025Z,23.10
2017-08-09T14:34:39.550Z,22.70
2017-08-09T14:37:07.102Z,22.10
2017-08-09T14:39:34.630Z,22.10
2017-08-09T14:42:02.151Z,21.70
2017-08-09T14:44:29.677Z,21.80
2017-08-09T14:46:57.205Z,22.30
2017-08-09T14:49:25.553Z,22.40
2017-08-09T14:51:53.079Z,21.90
2017-08-09T14:54:20.601Z,21.70
2017-08-09T14:56:48.889Z,20.80
2017-08-09T14:59:17.174Z,21.00
2017-08-09T15:01:44.721Z,20.90
2017-08-09T15:04:13.020Z,20.40
2017-08-09T15:06:40.546Z,20.30
2017-08-09T15:09:08.861Z,20.40
2017-08-09T15:11:36.409Z,20.20
2017-08-09T15:14:03.953Z,20.30
2017-08-09T15:16:32.243Z,20.20
2017-08-09T15:18:59.770Z,20.10
2017-08-09T15:21:27.297Z,20.10
2017-08-09T15:23:54.817Z,20.10
2017-08-09T15:26:22.405Z,20.20
2017-08-09T15:28:49.925Z,20.70
2017-08-09T15:31:18.259Z,21.50
2017-08-09T15:33:45.800Z,21.00
2017-08-09T15:36:13.343Z,20.80
2017-08-09T15:38:40.928Z,20.80
2017-08-09T15:41:08.455Z,20.50
2017-08-09T15:43:36.605Z,20.40
2017-08-09T15:46:04.894Z,20.70
2017-08-09T15:48:32.498Z,20.70
2017-08-09T15:51:00.857Z,20.50
2017-08-09T15:53:28.378Z,20.50
2017-08-09T15:55:56.666Z,20.60
2017-08-09T15:58:24.186Z,20.60
2017-08-09T16:00:51.734Z,20.80
2017-08-09T16:03:19.295Z,21.00
2017-08-09T16:05:46.843Z,21.20
2017-08-09T16:08:14.414Z,21.50
2017-08-09T16:10:41.933Z,22.10
2017-08-09T16:13:09.609Z,22.30
2017-08-09T16:15:37.182Z,22.80
2017-08-09T16:18:04.707Z,23.40
2017-08-09T16:20:32.234Z,24.10
2017-08-09T16:23:00.550Z,25.30
2017-08-09T16:25:28.725Z,25.20
2017-08-09T16:27:56.270Z,25.80
2017-08-09T16:30:23.792Z,26.40
2017-08-09T16:32:51.318Z,27.00
2017-08-09T16:35:19.572Z,27.60
2017-08-09T16:37:47.091Z,28.30
2017-08-09T16:40:15.406Z,30.00
2017-08-09T16:42:42.934Z,29.40
2017-08-09T16:45:11.226Z,30.70
2017-08-09T16:47:38.745Z,30.70
2017-08-09T16:50:06.275Z,31.10
2017-08-09T16:52:33.830Z,31.70
2017-08-09T16:55:01.397Z,32.70
2017-08-09T16:57:28.922Z,33.00
2017-08-09T16:59:56.446Z,33.30
2017-08-09T17:02:23.970Z,33.70
2017-08-09T17:04:51.528Z,34.10
2017-08-09T17:07:19.053Z,34.40
2017-08-09T17:09:46.601Z,34.80
2017-08-09T17:12:14.892Z,35.30
2017-08-09T17:14:42.401Z,35.30
2017-08-09T17:17:09.927Z,35.60
2017-08-09T17:19:37.458Z,35.90
2017-08-09T17:22:05.769Z,36.50
2017-08-09T17:24:33.286Z,36.40
2017-08-09T17:27:01.584Z,37.00
2017-08-09T17:29:29.109Z,37.00
2017-08-09T17:31:56.631Z,37.20
2017-08-09T17:34:24.185Z,37.80
2017-08-09T17:36:51.737Z,37.60
2017-08-09T17:39:19.272Z,37.70
2017-08-09T17:41:46.801Z,38.30
2017-08-09T17:44:14.331Z,38.20
2017-08-09T17:46:41.878Z,38.30
2017-08-09T17:49:09.406Z,38.50
2017-08-09T17:51:36.937Z,38.60
2017-08-09T17:54:04.466Z,38.80
2017-08-09T17:56:31.986Z,38.90
2017-08-09T17:58:59.537Z,39.10
2017-08-09T18:01:27.065Z,39.10
2017-08-09T18:03:54.589Z,39.10
2017-08-09T18:06:22.109Z,39.20
2017-08-09T18:08:49.634Z,39.80
2017-08-09T18:11:17.186Z,39.70
2017-08-09T18:13:44.706Z,39.90
2017-08-09T18:16:12.274Z,40.00
2017-08-09T18:18:39.797Z,39.80
2017-08-09T18:21:08.077Z,40.00
2017-08-09T18:23:36.401Z,40.00
2017-08-09T18:26:03.936Z,40.00
2017-08-09T18:28:31.456Z,40.60
2017-08-09T18:30:58.994Z,40.40
2017-08-09T18:33:26.903Z,40.60
2017-08-09T18:35:54.462Z,40.90
2017-08-09T18:38:21.989Z,40.90
2017-08-09T18:40:49.517Z,42.40
2017-08-09T18:43:17.040Z,42.70
2017-08-09T18:45:44.620Z,43.60
2017-08-09T18:48:12.179Z,43.30
2017-08-09T18:50:39.718Z,43.10
2017-08-09T18:53:07.242Z,43.20
2017-08-09T18:55:34.766Z,42.80
2017-08-09T18:58:02.285Z,43.20
2017-08-09T19:00:30.198Z,43.00
2017-08-09T19:02:57.717Z,42.90
2017-08-09T19:05:25.229Z,43.40
2017-08-09T19:07:52.751Z,43.00
2017-08-09T19:10:20.273Z,43.40
2017-08-09T19:12:48.597Z,43.70
2017-08-09T19:15:16.131Z,43.60
2017-08-09T19:17:43.685Z,43.60
2017-08-09T19:20:11.222Z,43.50
2017-08-09T19:22:39.517Z,43.20
2017-08-09T19:25:07.061Z,43.10
2017-08-09T19:27:35.358Z,43.40
2017-08-09T19:30:02.881Z,43.40
2017-08-09T19:32:31.174Z,43.60
2017-08-09T19:34:59.462Z,44.20
2017-08-09T19:37:27.012Z,44.20
2017-08-09T19:39:55.293Z,44.10
2017-08-09T19:42:22.818Z,44.10
2017-08-09T19:44:50.338Z,44.80
2017-08-09T19:47:17.863Z,44.70
2017-08-09T19:49:46.378Z,44.70
2017-08-09T19:52:13.901Z,44.60
2017-08-09T19:54:41.430Z,44.40
2017-08-09T19:57:08.955Z,45.00
2017-08-09T19:59:36.478Z,44.70
2017-08-09T20:02:04.790Z,45.00
2017-08-09T20:04:32.309Z,45.00
2017-08-09T20:07:00.593Z,45.40
2017-08-09T20:09:28.113Z,45.40
2017-08-09T20:11:55.634Z,45.00
2017-08-09T20:14:23.195Z,45.50
2017-08-09T20:16:50.722Z,45.80
2017-08-09T20:19:18.253Z,46.30
2017-08-09T20:21:45.775Z,46.30
2017-08-09T20:24:13.294Z,46.50
2017-08-09T20:26:41.609Z,46.90
2017-08-09T20:29:09.366Z,46.80
2017-08-09T20:31:36.883Z,47.10
2017-08-09T20:34:05.202Z,47.70
2017-08-09T20:36:32.723Z,47.70
2017-08-09T20:39:01.129Z,47.80
2017-08-09T20:41:28.651Z,47.80
2017-08-09T20:43:56.938Z,47.30
2017-08-09T20:46:25.222Z,48.00
2017-08-09T20:48:53.514Z,47.60
2017-08-09T20:51:21.066Z,47.60
2017-08-09T20:53:48.605Z,47.80
2017-08-09T20:56:17.018Z,47.90
2017-08-09T20:58:44.533Z,47.80
2017-08-09T21:01:12.066Z,48.00
2017-08-09T21:03:39.615Z,47.70
2017-08-09T21:06:07.137Z,48.40
2017-08-09T21:08:34.810Z,48.30
2017-08-09T21:11:02.326Z,48.10
2017-08-09T21:13:29.849Z,47.80
2017-08-09T21:15:57.394Z,48.00
2017-08-09T21:18:24.909Z,47.90
2017-08-09T21:20:53.200Z,48.30
2017-08-09T21:23:20.723Z,48.20
2017-08-09T21:25:48.242Z,48.50
2017-08-09T21:28:15.788Z,48.40
2017-08-09T21:30:43.307Z,48.40
2017-08-09T21:33:10.826Z,48.60
2017-08-09T21:35:38.343Z,48.60
2017-08-09T21:38:05.917Z,48.90
2017-08-09T21:40:33.461Z,49.40
2017-08-09T21:43:01.751Z,49.80
2017-08-09T21:45:29.286Z,49.80
2017-08-09T21:47:57.583Z,49.30
2017-08-09T21:50:25.102Z,49.20
2017-08-09T21:52:52.641Z,49.80
2017-08-09T21:55:20.160Z,50.50
2017-08-09T21:57:47.694Z,50.50
2017-08-09T22:00:16.021Z,50.30
2017-08-09T22:02:43.539Z,49.90
2017-08-09T22:05:11.861Z,51.00
2017-08-09T22:07:39.374Z,50.90
2017-08-09T22:10:07.662Z,51.00
2017-08-09T22:12:35.181Z,50.90
2017-08-09T22:15:02.701Z,51.00
2017-08-09T22:17:30.249Z,50.90
2017-08-09T22:19:57.765Z,50.60
2017-08-09T22:22:25.285Z,50.40
2017-08-09T22:24:52.809Z,50.00
2017-08-09T22:27:20.337Z,50.60
2017-08-09T22:29:47.882Z,50.00
2017-08-09T22:32:15.404Z,50.30
2017-08-09T22:34:42.928Z,50.60
2017-08-09T22:37:11.214Z,50.80
2017-08-09T22:39:39.499Z,50.60
2017-08-09T22:42:07.063Z,50.60
2017-08-09T22:44:34.586Z,50.80
2017-08-09T22:47:02.110Z,51.00
2017-08-09T22:49:29.638Z,51.30
2017-08-09T22:51:57.165Z,51.40
2017-08-09T22:54:25.485Z,52.60
2017-08-09T22:56:53.013Z,52.70
2017-08-09T22:59:21.305Z,52.80
2017-08-09T23:01:48.834Z,52.80
2017-08-09T23:04:17.122Z,53.50
2017-08-09T23:06:45.439Z,52.10
2017-08-09T23:09:12.961Z,52.00
2017-08-09T23:11:41.254Z,52.10
2017-08-09T23:14:08.785Z,52.10
2017-08-09T23:16:37.085Z,51.90
2017-08-09T23:19:04.634Z,51.90
2017-08-09T23:21:32.162Z,52.00
2017-08-09T23:23:59.690Z,52.20
2017-08-09T23:26:27.217Z,52.10
2017-08-09T23:28:54.742Z,52.50
2017-08-09T23:31:22.322Z,52.60
2017-08-09T23:33:50.613Z,53.30
2017-08-09T23:36:18.137Z,53.20
2017-08-09T23:38:45.670Z,53.60
2017-08-09T23:41:13.189Z,53.70
2017-08-09T23:43:40.741Z,53.80
2017-08-09T23:46:08.269Z,53.80
2017-08-09T23:48:35.794Z,53.40
2017-08-09T23:51:03.313Z,53.80
2017-08-09T23:53:30.857Z,54.40
2017-08-09T23:55:59.174Z,55.80
2017-08-09T23:58:26.701Z,55.70
